WetterOnline ( https://www.wetteronline.de )

Wetter aktuell Stechow-Ferchesar

Aktuelles Wetter: Genthin (39m)

6-stündlich | Neueste Meldungen
Ortszeit Temperatur Wetter
Fr, 27.11. 7:00 6.5° C bedeckt
Fr, 27.11. 1:00 7.0° C bedeckt
Do, 26.11. 19:00 7.7° C bedeckt
Do, 26.11. 13:00 7.7° C bewölkt
Do, 26.11. 7:00 3.5° C bedeckt
Do, 26.11. 1:00 -2.5° C wolkenlos
Mi, 25.11. 19:00 -0.5° C leicht bewölkt
Mi, 25.11. 13:00 4.3° C bedeckt
Ortszeit Temperatur Wetter
Fr, 27.11. 10:00 7.1° C bewölkt
Fr, 27.11. 9:50 7.1° C bewölkt
Fr, 27.11. 9:40 6.9° C bedeckt
Fr, 27.11. 9:30 6.7° C bedeckt
Fr, 27.11. 9:20 6.7° C bedeckt
Fr, 27.11. 9:10 6.7° C Nebel
Fr, 27.11. 9:00 6.5° C bedeckt
Fr, 27.11. 8:30 6.5° C Nebel
Fr, 27.11. 8:00 6.6° C bedeckt
Fr, 27.11. 7:30 6.7° C Nebel
Fr, 27.11. 7:00 6.5° C bedeckt
Ortszeit Relative Feuchte Sichtweite
Fr, 27.11. 7:00 100% 1.2 km
Fr, 27.11. 1:00 97% 5.0 km
Do, 26.11. 19:00 95% 6 km
Do, 26.11. 13:00 85% 14 km
Do, 26.11. 7:00 97% 5.0 km
Do, 26.11. 1:00 96% 6 km
Mi, 25.11. 19:00 99% 2.5 km
Mi, 25.11. 13:00 87% 13 km
Ortszeit Relative Feuchte Sichtweite
Fr, 27.11. 10:00 100% 2.6 km
Fr, 27.11. 9:50 100% -
Fr, 27.11. 9:40 99% -
Fr, 27.11. 9:30 100% 1.1 km
Fr, 27.11. 9:20 100% -
Fr, 27.11. 9:10 100% -
Fr, 27.11. 9:00 100% 1.2 km
Fr, 27.11. 8:30 100% 0.4 km
Fr, 27.11. 8:00 100% 1.2 km
Fr, 27.11. 7:30 100% 0.3 km
Fr, 27.11. 7:00 100% 1.2 km
Ortszeit Niederschlagsmenge Niederschlagsart
Fr, 27.11. 7:00 0.1 l/m2 in 12 Std. Regen
Fr, 27.11. 1:00 0.0 l/m2 in 6 Std. -
Do, 26.11. 19:00 0.1 l/m2 in 12 Std. Regen
Do, 26.11. 13:00 0.0 l/m2 in 6 Std. -
Do, 26.11. 7:00 0.0 l/m2 in 12 Std. -
Do, 26.11. 1:00 0.0 l/m2 in 6 Std. -
Mi, 25.11. 19:00 0.0 l/m2 in 12 Std. -
Mi, 25.11. 13:00 0.0 l/m2 in 6 Std. -
Ortszeit Niederschlagsmenge Niederschlagsart
Fr, 27.11. 10:00 0.0 l/m2 in 1 Std. -
Fr, 27.11. 9:50 keine Meldung -
Fr, 27.11. 9:40 keine Meldung -
Fr, 27.11. 9:30 0.0 l/m2 in 1 Std. -
Fr, 27.11. 9:20 keine Meldung -
Fr, 27.11. 9:10 keine Meldung -
Fr, 27.11. 9:00 0.0 l/m2 in 1 Std. -
Fr, 27.11. 8:30 0.0 l/m2 in 1 Std. -
Fr, 27.11. 8:00 0.0 l/m2 in 1 Std. -
Fr, 27.11. 7:30 0.0 l/m2 in 1 Std. -
Fr, 27.11. 7:00 0.0 l/m2 in 1 Std. Regen
Ortszeit Stärke Spitze Richtung
km/h Bft. km/h Grad Sektor
Fr, 27.11. 7:00 4 1 7 70° O
Fr, 27.11. 1:00 4 1 11 200° S
Do, 26.11. 19:00 4 1 14 250° W
Do, 26.11. 13:00 7 2 22 210° SW
Do, 26.11. 7:00 6 1 15 210° SW
Do, 26.11. 1:00 4 1 7 180° S
Mi, 25.11. 19:00 0 0 18 - -
Mi, 25.11. 13:00 7 2 18 160° S
Ortszeit Stärke Spitze Richtung
km/h Bft. km/h Grad Sektor
Fr, 27.11. 10:00 4 1 7 90° O
Fr, 27.11. 9:50 4 1 - 90° O
Fr, 27.11. 9:40 4 1 - 70° O
Fr, 27.11. 9:30 4 1 4 70° O
Fr, 27.11. 9:20 4 1 - 70° O
Fr, 27.11. 9:10 4 1 - 70° O
Fr, 27.11. 9:00 4 1 4 60° NO
Fr, 27.11. 8:30 2 1 4 140° SO
Fr, 27.11. 8:00 4 1 7 150° SO
Fr, 27.11. 7:30 4 1 7 40° NO
Fr, 27.11. 7:00 4 1 7 70° O
Ortszeit Untergrenze Bedeckung Gattung
total tief tief mittel hoch
Fr, 27.11. 7:00 90 m 8/8 8/8 - - -
Fr, 27.11. 1:00 90 m 8/8 8/8 - - -
Do, 26.11. 19:00 240 m 8/8 8/8 - - -
Do, 26.11. 13:00 390 m 7/8 7/8 - - -
Do, 26.11. 7:00 420 m 8/8 8/8 - - -
Do, 26.11. 1:00 - 0/8 0/8 - - -
Mi, 25.11. 19:00 9000 m 5/8 0/8 - - -
Mi, 25.11. 13:00 240 m 8/8 8/8 - - -
Ortszeit Bedeckungsgrad in Achtel und Wolkenuntergrenze
Fr, 27.11. 10:00 7(30m)
Fr, 27.11. 9:50 7(30m)
Fr, 27.11. 9:40 8(30m)
Fr, 27.11. 9:30 8(30m)
Fr, 27.11. 9:20 8(30m)
Fr, 27.11. 9:10 8(30m)
Fr, 27.11. 9:00 8(30m) 8(1230m)
Fr, 27.11. 8:30 8(30m) 8(1230m)
Fr, 27.11. 8:00 8(30m) 8(1230m)
Fr, 27.11. 7:30 8(30m)
Fr, 27.11. 7:00 8(90m) 8(1350m)
Ortszeit Luftdruck NN (hPa) Tendenz (hPa in 3 Std.)
Fr, 27.11. 7:00 1021 + 0,4
Fr, 27.11. 1:00 1021 + 0,1
Do, 26.11. 19:00 1021 + 0,6
Do, 26.11. 13:00 1020 - 0,6
Do, 26.11. 7:00 1020 - 0,1
Do, 26.11. 1:00 1020 + 0,4
Mi, 25.11. 19:00 1019 + 0,3
Mi, 25.11. 13:00 1019 - 0,6
Ortszeit Luftdruck NN (hPa) Tendenz (hPa in 3 Std.)
Fr, 27.11. 10:00 1022 + 0,9
Fr, 27.11. 9:50 1022 keine Meldung
Fr, 27.11. 9:40 1022 keine Meldung
Fr, 27.11. 9:30 1022 + 1,0
Fr, 27.11. 9:20 1022 keine Meldung
Fr, 27.11. 9:10 1022 keine Meldung
Fr, 27.11. 9:00 1022 + 1,3
Fr, 27.11. 8:30 1022 + 0,9
Fr, 27.11. 8:00 1022 + 0,5
Fr, 27.11. 7:30 1022 + 0,5
Fr, 27.11. 7:00 1021 + 0,4
Ortszeit Schneehöhe (cm)
Fr, 27.11. 7:00 0
Fr, 27.11. 1:00 0
Do, 26.11. 19:00 0
Do, 26.11. 13:00 0
Do, 26.11. 7:00 0
Do, 26.11. 1:00 0
Mi, 25.11. 19:00 0
Mi, 25.11. 13:00 0
Ortszeit Schneehöhe (cm)
Fr, 27.11. 10:00 0
Fr, 27.11. 9:50 0
Fr, 27.11. 9:40 0
Fr, 27.11. 9:30 0
Fr, 27.11. 9:20 0
Fr, 27.11. 9:10 0
Fr, 27.11. 9:00 0
Fr, 27.11. 8:30 0
Fr, 27.11. 8:00 0
Fr, 27.11. 7:30 0
Fr, 27.11. 7:00 0
Link zu dieser Seite / Seite empfehlen

Das Wetter in ...